Nassau, Bahamas

9:11 AM EDT on April 27, 2015 (GMT -0400)
Nassau International | | Change Station
CLOSE
Current Station
Airport
Location: Nassau,
Elevation: 23 ft
Nearby Weather Stations

Elev 23 ft 25.04 °N, 77.47 °W | Updated 11 minutes ago

Haze
Haze
84 °F
Feels Like 92 °F
N
10
Wind Variable Wind from West

Today
High -- | Low -- °F
--% Chance of Precip.
Yesterday
High -- | Low -- °F
Precip. -- in
6:37 AM 7:38 PM
Waxing Gibbous, 65% visible
Pressure 29.85 in
Visibility 5.6 miles
Clouds Few 1800 ft
Heat Index 92 °F
Dew Point 75 °F
Humidity 74%
Rainfall 0.00 in
Snow Depth Not available.
UV 4 out of 12
Pollen Not available.
Air Quality Not available.
Flu Activity Not available.
METAR MYNN 271300Z 26009KT 9000 HZ FEW018 29/24 A2985

More Conditions Fewer Conditions

Pressure 29.85 in
Visibility 5.6 miles
Clouds Few 1800 ft
Heat Index 92 °F
Dew Point 75 °F
Humidity 74%
Rainfall 0.00 in
Snow Depth Not available.
UV 4 out of 12
Pollen Not available.
Air Quality Not available.
Flu Activity Not available.
METAR MYNN 271300Z 26009KT 9000 HZ FEW018 29/24 A2985

More Conditions Fewer Conditions

10-Day Weather Forecast

Almanac

Astronomy

Apr. 27, 2015 Rise Set
Actual Time
Civil Twilight
Nautical Twilight
Astronomical Twilight
Moon
Length of Visible Light
Length of Day
Tomorrow will be .
, % of the Moon is Illuminated

Today's Extremes

Country Highs Country Lows

Community

WunderPhotos

Upload Photos

1,817,305 photos uploaded!

WunderBlogs® & News

Nearby

Air Quality

  Air Quality AQ Index Pollutant
Not available.

Snow Depth

Station Depth Elevation

Earthquake Activity

City Distance Mag. Time & Date
Minimum magnitude displayed is 2.5.

Coastal Water Temperatures

Place Temperature

Stations

Nearby Weather Stations

Station Location Temp. Windchill Dew Point Humidity Wind Precip. Elev Updated Type